sensor_id;sensor_type;location;lat;lon;timestamp;pressure;altitude;pressure_sealevel;temperature;humidity
12594;BME280;6362;50.208;9.182;2024-01-30T00:00:42;101239.28;;;1.10;100.00
12594;BME280;6362;50.208;9.182;2024-01-30T00:03:07;101239.69;;;1.18;100.00
12594;BME280;6362;50.208;9.182;2024-01-30T00:05:33;101246.50;;;1.17;100.00
12594;BME280;6362;50.208;9.182;2024-01-30T00:07:58;101253.69;;;1.08;100.00
12594;BME280;6362;50.208;9.182;2024-01-30T00:10:24;101245.94;;;1.07;100.00
12594;BME280;6362;50.208;9.182;2024-01-30T00:12:49;101249.81;;;1.16;100.00
12594;BME280;6362;50.208;9.182;2024-01-30T00:15:15;101243.75;;;1.14;100.00
12594;BME280;6362;50.208;9.182;2024-01-30T00:17:40;101245.69;;;1.02;100.00
12594;BME280;6362;50.208;9.182;2024-01-30T00:20:06;101249.38;;;0.91;100.00
12594;BME280;6362;50.208;9.182;2024-01-30T00:22:34;101249.06;;;0.85;100.00
12594;BME280;6362;50.208;9.182;2024-01-30T00:25:00;101247.19;;;0.82;100.00
12594;BME280;6362;50.208;9.182;2024-01-30T00:27:25;101251.13;;;0.75;100.00
12594;BME280;6362;50.208;9.182;2024-01-30T00:29:51;101253.59;;;0.74;100.00
12594;BME280;6362;50.208;9.182;2024-01-30T00:32:17;101249.28;;;0.73;100.00
12594;BME280;6362;50.208;9.182;2024-01-30T00:34:44;101243.13;;;0.69;100.00
12594;BME280;6362;50.208;9.182;2024-01-30T00:37:09;101246.47;;;0.68;100.00
12594;BME280;6362;50.208;9.182;2024-01-30T00:39:35;101250.72;;;0.68;100.00
12594;BME280;6362;50.208;9.182;2024-01-30T00:42:01;101248.16;;;0.68;100.00
12594;BME280;6362;50.208;9.182;2024-01-30T00:44:26;101246.41;;;0.67;100.00
12594;BME280;6362;50.208;9.182;2024-01-30T00:46:52;101236.88;;;0.64;100.00
12594;BME280;6362;50.208;9.182;2024-01-30T00:49:17;101241.91;;;0.63;100.00
12594;BME280;6362;50.208;9.182;2024-01-30T00:51:43;101235.03;;;0.62;100.00
12594;BME280;6362;50.208;9.182;2024-01-30T00:54:08;101241.50;;;0.55;100.00
12594;BME280;6362;50.208;9.182;2024-01-30T00:56:33;101243.03;;;0.51;100.00
12594;BME280;6362;50.208;9.182;2024-01-30T00:59:00;101247.09;;;0.48;100.00
12594;BME280;6362;50.208;9.182;2024-01-30T01:01:25;101243.66;;;0.47;100.00
12594;BME280;6362;50.208;9.182;2024-01-30T01:03:50;101245.81;;;0.40;100.00
12594;BME280;6362;50.208;9.182;2024-01-30T01:06:16;101243.06;;;0.37;100.00
12594;BME280;6362;50.208;9.182;2024-01-30T01:08:41;101243.94;;;0.37;100.00
12594;BME280;6362;50.208;9.182;2024-01-30T01:11:07;101238.56;;;0.33;100.00
12594;BME280;6362;50.208;9.182;2024-01-30T01:13:32;101237.69;;;0.32;100.00
12594;BME280;6362;50.208;9.182;2024-01-30T01:15:58;101243.59;;;0.31;100.00
12594;BME280;6362;50.208;9.182;2024-01-30T01:18:23;101253.84;;;0.31;100.00
12594;BME280;6362;50.208;9.182;2024-01-30T01:20:49;101248.59;;;0.28;100.00
12594;BME280;6362;50.208;9.182;2024-01-30T01:23:14;101262.06;;;0.25;100.00
12594;BME280;6362;50.208;9.182;2024-01-30T01:25:40;101258.69;;;0.26;100.00
12594;BME280;6362;50.208;9.182;2024-01-30T01:28:05;101258.38;;;0.20;100.00
12594;BME280;6362;50.208;9.182;2024-01-30T01:30:31;101264.09;;;0.16;100.00
12594;BME280;6362;50.208;9.182;2024-01-30T01:32:57;101262.09;;;0.11;100.00
12594;BME280;6362;50.208;9.182;2024-01-30T01:35:26;101253.91;;;0.02;100.00
12594;BME280;6362;50.208;9.182;2024-01-30T01:37:52;101264.84;;;-0.01;100.00
12594;BME280;6362;50.208;9.182;2024-01-30T01:40:22;101260.44;;;-0.04;100.00
12594;BME280;6362;50.208;9.182;2024-01-30T01:42:50;101259.56;;;-0.04;100.00
12594;BME280;6362;50.208;9.182;2024-01-30T01:45:17;101251.63;;;-0.09;100.00
12594;BME280;6362;50.208;9.182;2024-01-30T01:47:43;101255.06;;;-0.08;100.00
12594;BME280;6362;50.208;9.182;2024-01-30T01:50:12;101258.44;;;-0.09;100.00
12594;BME280;6362;50.208;9.182;2024-01-30T01:52:39;101250.56;;;-0.12;100.00
12594;BME280;6362;50.208;9.182;2024-01-30T01:55:06;101256.41;;;-0.15;100.00
12594;BME280;6362;50.208;9.182;2024-01-30T01:57:33;101252.72;;;-0.20;100.00
12594;BME280;6362;50.208;9.182;2024-01-30T01:59:58;101255.00;;;-0.24;100.00
12594;BME280;6362;50.208;9.182;2024-01-30T02:02:24;101247.41;;;-0.23;100.00
12594;BME280;6362;50.208;9.182;2024-01-30T02:04:51;101248.22;;;-0.24;100.00
12594;BME280;6362;50.208;9.182;2024-01-30T02:07:17;101249.72;;;-0.28;100.00
12594;BME280;6362;50.208;9.182;2024-01-30T02:09:42;101244.50;;;-0.29;100.00
12594;BME280;6362;50.208;9.182;2024-01-30T02:12:08;101241.25;;;-0.27;100.00
12594;BME280;6362;50.208;9.182;2024-01-30T02:14:44;101233.41;;;-0.30;100.00
12594;BME280;6362;50.208;9.182;2024-01-30T02:17:10;101231.84;;;-0.28;100.00
12594;BME280;6362;50.208;9.182;2024-01-30T02:19:35;101235.28;;;-0.27;100.00
12594;BME280;6362;50.208;9.182;2024-01-30T02:22:01;101235.06;;;-0.30;100.00
12594;BME280;6362;50.208;9.182;2024-01-30T02:24:26;101235.63;;;-0.36;100.00
12594;BME280;6362;50.208;9.182;2024-01-30T02:26:52;101237.75;;;-0.43;100.00
12594;BME280;6362;50.208;9.182;2024-01-30T02:29:17;101243.53;;;-0.46;100.00
12594;BME280;6362;50.208;9.182;2024-01-30T02:31:43;101238.53;;;-0.44;100.00
12594;BME280;6362;50.208;9.182;2024-01-30T02:34:11;101238.53;;;-0.44;100.00
12594;BME280;6362;50.208;9.182;2024-01-30T02:36:36;101236.66;;;-0.47;100.00
12594;BME280;6362;50.208;9.182;2024-01-30T02:39:03;101238.28;;;-0.49;100.00
12594;BME280;6362;50.208;9.182;2024-01-30T02:41:28;101233.41;;;-0.59;100.00
12594;BME280;6362;50.208;9.182;2024-01-30T02:43:54;101223.88;;;-0.62;100.00
12594;BME280;6362;50.208;9.182;2024-01-30T02:46:19;101229.09;;;-0.60;100.00
12594;BME280;6362;50.208;9.182;2024-01-30T02:48:45;101226.34;;;-0.63;100.00
12594;BME280;6362;50.208;9.182;2024-01-30T02:51:10;101224.94;;;-0.58;100.00
12594;BME280;6362;50.208;9.182;2024-01-30T02:53:36;101229.09;;;-0.60;100.00
12594;BME280;6362;50.208;9.182;2024-01-30T02:56:05;101233.22;;;-0.62;100.00
12594;BME280;6362;50.208;9.182;2024-01-30T02:58:31;101232.00;;;-0.69;100.00
12594;BME280;6362;50.208;9.182;2024-01-30T03:00:56;101225.94;;;-0.71;100.00
12594;BME280;6362;50.208;9.182;2024-01-30T03:03:22;101231.19;;;-0.68;100.00
12594;BME280;6362;50.208;9.182;2024-01-30T03:05:47;101226.53;;;-0.75;100.00
12594;BME280;6362;50.208;9.182;2024-01-30T03:08:13;101230.56;;;-0.78;100.00
12594;BME280;6362;50.208;9.182;2024-01-30T03:10:38;101224.31;;;-0.84;100.00
12594;BME280;6362;50.208;9.182;2024-01-30T03:13:04;101236.91;;;-0.87;100.00
12594;BME280;6362;50.208;9.182;2024-01-30T03:15:29;101227.56;;;-0.86;100.00
12594;BME280;6362;50.208;9.182;2024-01-30T03:17:55;101233.19;;;-0.92;100.00
12594;BME280;6362;50.208;9.182;2024-01-30T03:20:20;101232.25;;;-0.94;100.00
12594;BME280;6362;50.208;9.182;2024-01-30T03:22:46;101235.66;;;-0.93;100.00
12594;BME280;6362;50.208;9.182;2024-01-30T03:25:11;101243.31;;;-0.93;100.00
12594;BME280;6362;50.208;9.182;2024-01-30T03:27:37;101239.09;;;-0.93;100.00
12594;BME280;6362;50.208;9.182;2024-01-30T03:30:02;101226.94;;;-0.97;100.00
12594;BME280;6362;50.208;9.182;2024-01-30T03:32:28;101238.31;;;-0.92;100.00
12594;BME280;6362;50.208;9.182;2024-01-30T03:34:53;101238.22;;;-0.93;100.00
12594;BME280;6362;50.208;9.182;2024-01-30T03:37:19;101234.63;;;-0.82;100.00
12594;BME280;6362;50.208;9.182;2024-01-30T03:39:44;101243.09;;;-0.83;100.00
12594;BME280;6362;50.208;9.182;2024-01-30T03:42:10;101253.03;;;-0.88;100.00
12594;BME280;6362;50.208;9.182;2024-01-30T03:44:35;101247.91;;;-0.88;100.00
12594;BME280;6362;50.208;9.182;2024-01-30T03:47:01;101251.50;;;-0.84;100.00
12594;BME280;6362;50.208;9.182;2024-01-30T03:49:26;101251.06;;;-0.92;100.00
12594;BME280;6362;50.208;9.182;2024-01-30T03:51:52;101245.09;;;-0.92;100.00
12594;BME280;6362;50.208;9.182;2024-01-30T03:54:17;101244.13;;;-0.94;100.00
12594;BME280;6362;50.208;9.182;2024-01-30T03:56:43;101242.34;;;-0.95;100.00
12594;BME280;6362;50.208;9.182;2024-01-30T03:59:08;101241.47;;;-0.96;100.00
12594;BME280;6362;50.208;9.182;2024-01-30T04:01:34;101248.16;;;-0.98;100.00
12594;BME280;6362;50.208;9.182;2024-01-30T04:03:59;101249.75;;;-1.00;100.00
12594;BME280;6362;50.208;9.182;2024-01-30T04:06:24;101248.75;;;-1.02;100.00
12594;BME280;6362;50.208;9.182;2024-01-30T04:08:50;101241.69;;;-1.06;100.00
12594;BME280;6362;50.208;9.182;2024-01-30T04:11:18;101239.06;;;-1.08;100.00
12594;BME280;6362;50.208;9.182;2024-01-30T04:13:44;101239.94;;;-1.07;100.00
12594;BME280;6362;50.208;9.182;2024-01-30T04:16:19;101236.50;;;-1.08;100.00
12594;BME280;6362;50.208;9.182;2024-01-30T04:18:46;101226.50;;;-1.04;100.00
12594;BME280;6362;50.208;9.182;2024-01-30T04:21:11;101230.97;;;-1.00;100.00
12594;BME280;6362;50.208;9.182;2024-01-30T04:23:36;101232.25;;;-0.94;100.00
12594;BME280;6362;50.208;9.182;2024-01-30T04:26:02;101233.13;;;-0.78;100.00
12594;BME280;6362;50.208;9.182;2024-01-30T04:28:28;101228.00;;;-0.78;100.00
12594;BME280;6362;50.208;9.182;2024-01-30T04:30:55;101236.53;;;-0.93;100.00
12594;BME280;6362;50.208;9.182;2024-01-30T04:33:20;101237.94;;;-0.98;100.00
12594;BME280;6362;50.208;9.182;2024-01-30T04:35:46;101237.66;;;-1.02;100.00
12594;BME280;6362;50.208;9.182;2024-01-30T04:38:11;101240.03;;;-1.06;100.00
12594;BME280;6362;50.208;9.182;2024-01-30T04:40:36;101239.06;;;-1.08;100.00
12594;BME280;6362;50.208;9.182;2024-01-30T04:43:02;101232.13;;;-1.10;100.00
12594;BME280;6362;50.208;9.182;2024-01-30T04:45:27;101235.34;;;-1.13;100.00
12594;BME280;6362;50.208;9.182;2024-01-30T04:47:53;101230.06;;;-1.16;100.00
12594;BME280;6362;50.208;9.182;2024-01-30T04:50:18;101231.63;;;-1.18;100.00
12594;BME280;6362;50.208;9.182;2024-01-30T04:52:44;101232.50;;;-1.17;100.00
12594;BME280;6362;50.208;9.182;2024-01-30T04:55:09;101241.66;;;-1.21;100.00
12594;BME280;6362;50.208;9.182;2024-01-30T04:57:35;101232.94;;;-1.24;100.00
12594;BME280;6362;50.208;9.182;2024-01-30T05:00:01;101238.13;;;-1.23;100.00
12594;BME280;6362;50.208;9.182;2024-01-30T05:02:27;101243.75;;;-1.28;100.00
12594;BME280;6362;50.208;9.182;2024-01-30T05:04:52;101246.28;;;-1.28;100.00
12594;BME280;6362;50.208;9.182;2024-01-30T05:07:18;101243.66;;;-1.30;100.00
12594;BME280;6362;50.208;9.182;2024-01-30T05:09:43;101247.88;;;-1.30;100.00
12594;BME280;6362;50.208;9.182;2024-01-30T05:12:10;101246.91;;;-1.33;100.00
12594;BME280;6362;50.208;9.182;2024-01-30T05:14:35;101254.75;;;-1.29;100.00
12594;BME280;6362;50.208;9.182;2024-01-30T05:17:01;101248.69;;;-1.31;100.00
12594;BME280;6362;50.208;9.182;2024-01-30T05:19:28;101255.44;;;-1.32;100.00
12594;BME280;6362;50.208;9.182;2024-01-30T05:21:53;101259.75;;;-1.31;100.00
12594;BME280;6362;50.208;9.182;2024-01-30T05:24:19;101258.88;;;-1.31;100.00
12594;BME280;6362;50.208;9.182;2024-01-30T05:26:44;101253.34;;;-1.24;100.00
12594;BME280;6362;50.208;9.182;2024-01-30T05:29:10;101256.28;;;-1.18;100.00
12594;BME280;6362;50.208;9.182;2024-01-30T05:31:35;101246.56;;;-1.11;100.00
12594;BME280;6362;50.208;9.182;2024-01-30T05:34:01;101258.22;;;-1.14;100.00
12594;BME280;6362;50.208;9.182;2024-01-30T05:36:27;101256.47;;;-1.15;100.00
12594;BME280;6362;50.208;9.182;2024-01-30T05:38:52;101253.91;;;-1.15;100.00
12594;BME280;6362;50.208;9.182;2024-01-30T05:41:19;101258.03;;;-1.17;100.00
12594;BME280;6362;50.208;9.182;2024-01-30T05:43:44;101257.88;;;-1.20;100.00
12594;BME280;6362;50.208;9.182;2024-01-30T05:46:10;101266.47;;;-1.18;100.00
12594;BME280;6362;50.208;9.182;2024-01-30T05:48:35;101264.00;;;-1.17;100.00
12594;BME280;6362;50.208;9.182;2024-01-30T05:51:01;101264.94;;;-1.16;100.00
12594;BME280;6362;50.208;9.182;2024-01-30T05:53:28;101265.09;;;-1.13;100.00
12594;BME280;6362;50.208;9.182;2024-01-30T05:55:53;101269.41;;;-1.12;100.00
12594;BME280;6362;50.208;9.182;2024-01-30T05:58:19;101264.31;;;-1.12;100.00
12594;BME280;6362;50.208;9.182;2024-01-30T06:00:44;101272.84;;;-1.12;100.00
12594;BME280;6362;50.208;9.182;2024-01-30T06:03:09;101271.28;;;-1.10;100.00
12594;BME280;6362;50.208;9.182;2024-01-30T06:05:35;101265.97;;;-1.13;100.00
12594;BME280;6362;50.208;9.182;2024-01-30T06:08:02;101267.06;;;-1.09;100.00
12594;BME280;6362;50.208;9.182;2024-01-30T06:10:27;101267.84;;;-1.10;100.00
12594;BME280;6362;50.208;9.182;2024-01-30T06:12:53;101273.03;;;-1.09;100.00
12594;BME280;6362;50.208;9.182;2024-01-30T06:15:18;101270.47;;;-1.09;100.00
12594;BME280;6362;50.208;9.182;2024-01-30T06:17:44;101274.88;;;-1.06;100.00
12594;BME280;6362;50.208;9.182;2024-01-30T06:20:09;101261.94;;;-1.09;100.00
12594;BME280;6362;50.208;9.182;2024-01-30T06:22:35;101269.69;;;-1.08;100.00
12594;BME280;6362;50.208;9.182;2024-01-30T06:25:01;101271.13;;;-0.98;100.00
12594;BME280;6362;50.208;9.182;2024-01-30T06:27:27;101270.94;;;-1.01;100.00
12594;BME280;6362;50.208;9.182;2024-01-30T06:29:52;101270.53;;;-0.94;100.00
12594;BME280;6362;50.208;9.182;2024-01-30T06:32:17;101273.47;;;-0.88;100.00
12594;BME280;6362;50.208;9.182;2024-01-30T06:34:43;101271.31;;;-0.95;100.00
12594;BME280;6362;50.208;9.182;2024-01-30T06:37:09;101272.81;;;-0.98;100.00
12594;BME280;6362;50.208;9.182;2024-01-30T06:39:35;101272.59;;;-1.01;100.00
12594;BME280;6362;50.208;9.182;2024-01-30T06:42:00;101270.06;;;-1.01;100.00
12594;BME280;6362;50.208;9.182;2024-01-30T06:44:26;101264.78;;;-1.04;100.00
12594;BME280;6362;50.208;9.182;2024-01-30T06:46:51;101268.81;;;-1.08;100.00
12594;BME280;6362;50.208;9.182;2024-01-30T06:49:17;101263.72;;;-1.08;100.00
12594;BME280;6362;50.208;9.182;2024-01-30T06:51:43;101265.47;;;-1.07;100.00
12594;BME280;6362;50.208;9.182;2024-01-30T06:54:08;101272.00;;;-0.97;100.00
12594;BME280;6362;50.208;9.182;2024-01-30T06:56:34;101259.97;;;-1.00;100.00
12594;BME280;6362;50.208;9.182;2024-01-30T06:58:59;101257.63;;;-0.67;100.00
12594;BME280;6362;50.208;9.182;2024-01-30T07:01:28;101254.38;;;-0.20;100.00
12594;BME280;6362;50.208;9.182;2024-01-30T07:03:54;101260.19;;;0.07;100.00
12594;BME280;6362;50.208;9.182;2024-01-30T07:06:20;101266.84;;;0.19;100.00
12594;BME280;6362;50.208;9.182;2024-01-30T07:08:46;101265.72;;;0.45;100.00
12594;BME280;6362;50.208;9.182;2024-01-30T07:11:20;101270.44;;;0.54;100.00
12594;BME280;6362;50.208;9.182;2024-01-30T07:13:47;101270.50;;;0.39;100.00
12594;BME280;6362;50.208;9.182;2024-01-30T07:16:14;101260.94;;;0.20;100.00
12594;BME280;6362;50.208;9.182;2024-01-30T07:18:39;101262.41;;;0.01;100.00
12594;BME280;6362;50.208;9.182;2024-01-30T07:21:04;101261.25;;;-0.05;100.00
12594;BME280;6362;50.208;9.182;2024-01-30T07:23:30;101258.16;;;-0.14;100.00
12594;BME280;6362;50.208;9.182;2024-01-30T07:25:55;101265.56;;;-0.18;100.00
12594;BME280;6362;50.208;9.182;2024-01-30T07:28:21;101263.38;;;-0.27;100.00
12594;BME280;6362;50.208;9.182;2024-01-30T07:30:47;101262.13;;;-0.34;100.00
12594;BME280;6362;50.208;9.182;2024-01-30T07:33:13;101273.06;;;-0.36;100.00
12594;BME280;6362;50.208;9.182;2024-01-30T07:35:39;101272.63;;;-0.44;100.00
12594;BME280;6362;50.208;9.182;2024-01-30T07:38:04;101260.09;;;-0.39;100.00
12594;BME280;6362;50.208;9.182;2024-01-30T07:40:30;101264.44;;;-0.38;100.00
12594;BME280;6362;50.208;9.182;2024-01-30T07:42:55;101266.19;;;-0.37;100.00
12594;BME280;6362;50.208;9.182;2024-01-30T07:45:21;101266.28;;;-0.36;100.00
12594;BME280;6362;50.208;9.182;2024-01-30T07:47:51;101263.03;;;-0.33;100.00
12594;BME280;6362;50.208;9.182;2024-01-30T07:50:17;101258.97;;;-0.30;100.00
12594;BME280;6362;50.208;9.182;2024-01-30T07:52:43;101251.84;;;-0.20;100.00
12594;BME280;6362;50.208;9.182;2024-01-30T07:55:08;101267.13;;;-0.06;100.00
12594;BME280;6362;50.208;9.182;2024-01-30T07:57:38;101268.47;;;-0.12;100.00
12594;BME280;6362;50.208;9.182;2024-01-30T08:00:04;101262.06;;;-0.20;100.00
12594;BME280;6362;50.208;9.182;2024-01-30T08:02:32;101258.16;;;-0.14;100.00
12594;BME280;6362;50.208;9.182;2024-01-30T08:04:57;101257.56;;;-0.10;100.00
12594;BME280;6362;50.208;9.182;2024-01-30T08:07:24;101259.56;;;-0.04;100.00
12594;BME280;6362;50.208;9.182;2024-01-30T08:09:50;101255.50;;;-0.01;100.00
12594;BME280;6362;50.208;9.182;2024-01-30T08:12:15;101252.66;;;0.10;100.00
12594;BME280;6362;50.208;9.182;2024-01-30T08:14:41;101259.91;;;0.17;100.00
12594;BME280;6362;50.208;9.182;2024-01-30T08:17:07;101260.91;;;0.35;100.00
12594;BME280;6362;50.208;9.182;2024-01-30T08:19:33;101256.13;;;0.41;100.00
12594;BME280;6362;50.208;9.182;2024-01-30T08:21:58;101253.97;;;0.49;100.00
12594;BME280;6362;50.208;9.182;2024-01-30T08:24:24;101264.06;;;0.62;100.00
12594;BME280;6362;50.208;9.182;2024-01-30T08:26:49;101259.69;;;0.76;100.00
12594;BME280;6362;50.208;9.182;2024-01-30T08:29:15;101265.56;;;0.90;100.00
12594;BME280;6362;50.208;9.182;2024-01-30T08:31:40;101274.19;;;1.08;100.00
12594;BME280;6362;50.208;9.182;2024-01-30T08:34:06;101267.38;;;1.25;100.00
12594;BME280;6362;50.208;9.182;2024-01-30T08:36:32;101273.84;;;1.35;100.00
12594;BME280;6362;50.208;9.182;2024-01-30T08:38:57;101263.09;;;1.42;100.00
12594;BME280;6362;50.208;9.182;2024-01-30T08:41:23;101274.78;;;1.53;100.00
12594;BME280;6362;50.208;9.182;2024-01-30T08:43:49;101275.16;;;1.61;100.00
12594;BME280;6362;50.208;9.182;2024-01-30T08:46:18;101269.53;;;1.68;100.00
12594;BME280;6362;50.208;9.182;2024-01-30T08:48:44;101279.34;;;1.76;100.00
12594;BME280;6362;50.208;9.182;2024-01-30T08:51:10;101274.53;;;1.82;100.00
12594;BME280;6362;50.208;9.182;2024-01-30T08:53:36;101270.44;;;1.86;100.00
12594;BME280;6362;50.208;9.182;2024-01-30T08:56:03;101272.34;;;1.90;100.00
12594;BME280;6362;50.208;9.182;2024-01-30T08:58:29;101271.56;;;1.91;100.00
12594;BME280;6362;50.208;9.182;2024-01-30T09:00:54;101279.06;;;1.88;100.00
12594;BME280;6362;50.208;9.182;2024-01-30T09:03:20;101276.63;;;1.90;100.00
12594;BME280;6362;50.208;9.182;2024-01-30T09:05:45;101279.84;;;2.03;100.00
12594;BME280;6362;50.208;9.182;2024-01-30T09:08:10;101281.28;;;2.16;100.00
12594;BME280;6362;50.208;9.182;2024-01-30T09:10:36;101278.06;;;2.20;100.00
12594;BME280;6362;50.208;9.182;2024-01-30T09:13:02;101280.81;;;2.23;100.00
12594;BME280;6362;50.208;9.182;2024-01-30T09:15:28;101279.53;;;2.33;100.00
12594;BME280;6362;50.208;9.182;2024-01-30T09:17:53;101277.41;;;2.42;100.00
12594;BME280;6362;50.208;9.182;2024-01-30T09:20:19;101284.06;;;2.56;100.00
12594;BME280;6362;50.208;9.182;2024-01-30T09:22:45;101293.47;;;2.56;100.00
12594;BME280;6362;50.208;9.182;2024-01-30T09:25:11;101290.31;;;2.61;100.00
12594;BME280;6362;50.208;9.182;2024-01-30T09:27:36;101292.28;;;2.67;100.00
12594;BME280;6362;50.208;9.182;2024-01-30T09:30:02;101302.47;;;2.65;100.00
12594;BME280;6362;50.208;9.182;2024-01-30T09:32:28;101298.63;;;2.75;100.00
12594;BME280;6362;50.208;9.182;2024-01-30T09:34:53;101297.91;;;2.78;100.00
12594;BME280;6362;50.208;9.182;2024-01-30T09:37:19;101295.06;;;2.91;100.00
12594;BME280;6362;50.208;9.182;2024-01-30T09:39:45;101290.88;;;2.93;100.00
12594;BME280;6362;50.208;9.182;2024-01-30T09:42:31;101284.31;;;3.00;100.00
12594;BME280;6362;50.208;9.182;2024-01-30T09:44:59;101281.94;;;3.04;100.00
12594;BME280;6362;50.208;9.182;2024-01-30T09:47:24;101288.59;;;3.18;100.00
12594;BME280;6362;50.208;9.182;2024-01-30T09:49:51;101278.78;;;3.29;100.00
12594;BME280;6362;50.208;9.182;2024-01-30T09:52:17;101280.06;;;3.39;100.00
12594;BME280;6362;50.208;9.182;2024-01-30T09:54:44;101277.50;;;3.60;100.00
12594;BME280;6362;50.208;9.182;2024-01-30T09:57:11;101271.75;;;3.65;100.00
12594;BME280;6362;50.208;9.182;2024-01-30T09:59:37;101277.09;;;3.70;100.00
12594;BME280;6362;50.208;9.182;2024-01-30T10:02:03;101278.22;;;3.77;100.00
12594;BME280;6362;50.208;9.182;2024-01-30T10:04:30;101272.78;;;3.90;100.00
12594;BME280;6362;50.208;9.182;2024-01-30T10:06:56;101273.38;;;4.05;100.00
12594;BME280;6362;50.208;9.182;2024-01-30T10:09:24;101278.84;;;4.13;100.00
12594;BME280;6362;50.208;9.182;2024-01-30T10:11:51;101270.28;;;4.35;100.00
12594;BME280;6362;50.208;9.182;2024-01-30T10:14:16;101274.25;;;4.49;100.00
12594;BME280;6362;50.208;9.182;2024-01-30T10:16:42;101266.75;;;4.55;100.00
12594;BME280;6362;50.208;9.182;2024-01-30T10:19:07;101268.16;;;4.47;100.00
12594;BME280;6362;50.208;9.182;2024-01-30T10:21:33;101275.38;;;4.56;100.00
12594;BME280;6362;50.208;9.182;2024-01-30T10:23:58;101258.72;;;4.70;100.00
12594;BME280;6362;50.208;9.182;2024-01-30T10:26:24;101269.69;;;4.64;100.00
12594;BME280;6362;50.208;9.182;2024-01-30T10:28:50;101269.41;;;4.79;100.00
12594;BME280;6362;50.208;9.182;2024-01-30T10:31:17;101266.13;;;4.83;100.00
12594;BME280;6362;50.208;9.182;2024-01-30T10:33:44;101266.59;;;4.97;100.00
12594;BME280;6362;50.208;9.182;2024-01-30T10:36:13;101271.94;;;5.25;100.00
12594;BME280;6362;50.208;9.182;2024-01-30T10:38:42;101257.38;;;5.51;100.00
12594;BME280;6362;50.208;9.182;2024-01-30T10:41:08;101252.47;;;5.85;100.00
12594;BME280;6362;50.208;9.182;2024-01-30T10:43:41;101263.72;;;6.12;100.00
12594;BME280;6362;50.208;9.182;2024-01-30T10:46:17;101264.94;;;6.23;100.00
12594;BME280;6362;50.208;9.182;2024-01-30T10:48:44;101259.16;;;6.32;100.00
12594;BME280;6362;50.208;9.182;2024-01-30T10:51:15;101264.09;;;6.24;100.00
12594;BME280;6362;50.208;9.182;2024-01-30T10:53:43;101263.56;;;6.34;100.00
12594;BME280;6362;50.208;9.182;2024-01-30T10:56:12;101255.88;;;6.38;100.00
12594;BME280;6362;50.208;9.182;2024-01-30T10:58:38;101247.72;;;6.24;100.00
12594;BME280;6362;50.208;9.182;2024-01-30T11:01:05;101237.63;;;6.31;100.00
12594;BME280;6362;50.208;9.182;2024-01-30T11:03:30;101239.69;;;6.43;100.00
12594;BME280;6362;50.208;9.182;2024-01-30T11:05:59;101244.44;;;6.58;100.00
12594;BME280;6362;50.208;9.182;2024-01-30T11:08:25;101242.47;;;6.78;100.00
12594;BME280;6362;50.208;9.182;2024-01-30T11:10:57;101236.38;;;7.07;100.00
12594;BME280;6362;50.208;9.182;2024-01-30T11:13:31;101226.31;;;7.50;100.00
12594;BME280;6362;50.208;9.182;2024-01-30T11:16:01;101230.91;;;7.96;100.00
12594;BME280;6362;50.208;9.182;2024-01-30T11:18:31;101227.34;;;8.29;100.00
12594;BME280;6362;50.208;9.182;2024-01-30T11:20:58;101232.47;;;8.27;100.00
12594;BME280;6362;50.208;9.182;2024-01-30T11:23:26;101222.38;;;8.38;100.00
12594;BME280;6362;50.208;9.182;2024-01-30T11:25:53;101230.28;;;8.42;100.00
12594;BME280;6362;50.208;9.182;2024-01-30T11:28:18;101226.19;;;8.52;100.00
12594;BME280;6362;50.208;9.182;2024-01-30T11:30:44;101220.28;;;8.59;100.00
12594;BME280;6362;50.208;9.182;2024-01-30T11:33:12;101223.34;;;8.82;100.00
12594;BME280;6362;50.208;9.182;2024-01-30T11:35:42;101218.19;;;8.84;100.00
12594;BME280;6362;50.208;9.182;2024-01-30T11:38:09;101218.34;;;8.91;100.00
12594;BME280;6362;50.208;9.182;2024-01-30T11:40:36;101214.03;;;8.93;100.00
12594;BME280;6362;50.208;9.182;2024-01-30T11:43:03;101223.38;;;8.84;100.00
12594;BME280;6362;50.208;9.182;2024-01-30T11:45:30;101227.41;;;9.13;100.00
12594;BME280;6362;50.208;9.182;2024-01-30T11:47:56;101226.91;;;9.33;100.00
12594;BME280;6362;50.208;9.182;2024-01-30T11:50:23;101213.78;;;9.75;100.00
12594;BME280;6362;50.208;9.182;2024-01-30T11:52:50;101225.38;;;9.94;100.00
12594;BME280;6362;50.208;9.182;2024-01-30T11:55:15;101221.25;;;10.07;100.00
12594;BME280;6362;50.208;9.182;2024-01-30T11:57:41;101218.41;;;9.91;100.00
12594;BME280;6362;50.208;9.182;2024-01-30T12:00:14;101221.25;;;10.07;100.00
12594;BME280;6362;50.208;9.182;2024-01-30T12:02:40;101218.31;;;10.41;100.00
12594;BME280;6362;50.208;9.182;2024-01-30T12:05:07;101208.59;;;10.96;100.00
12594;BME280;6362;50.208;9.182;2024-01-30T12:07:33;101200.28;;;11.31;100.00
12594;BME280;6362;50.208;9.182;2024-01-30T12:09:59;101198.06;;;11.75;100.00
12594;BME280;6362;50.208;9.182;2024-01-30T12:12:28;101192.28;;;12.14;100.00
12594;BME280;6362;50.208;9.182;2024-01-30T12:14:55;101193.41;;;12.59;100.00
12594;BME280;6362;50.208;9.182;2024-01-30T12:17:29;101183.06;;;12.93;100.00
12594;BME280;6362;50.208;9.182;2024-01-30T12:20:06;101181.47;;;13.29;100.00
12594;BME280;6362;50.208;9.182;2024-01-30T12:22:35;101183.19;;;13.43;100.00
12594;BME280;6362;50.208;9.182;2024-01-30T12:25:01;101172.78;;;13.72;100.00
12594;BME280;6362;50.208;9.182;2024-01-30T12:27:26;101169.22;;;14.16;100.00
12594;BME280;6362;50.208;9.182;2024-01-30T12:29:58;101163.03;;;14.40;100.00
12594;BME280;6362;50.208;9.182;2024-01-30T12:32:24;101167.41;;;14.40;100.00
12594;BME280;6362;50.208;9.182;2024-01-30T12:34:50;101161.22;;;14.64;97.00
12594;BME280;6362;50.208;9.182;2024-01-30T12:37:15;101159.59;;;14.24;95.90
12594;BME280;6362;50.208;9.182;2024-01-30T12:39:47;101159.69;;;13.85;100.00
12594;BME280;6362;50.208;9.182;2024-01-30T12:42:13;101170.16;;;13.68;100.00
12594;BME280;6362;50.208;9.182;2024-01-30T12:44:39;101166.66;;;13.49;100.00
12594;BME280;6362;50.208;9.182;2024-01-30T12:47:04;101157.97;;;13.62;100.00
12594;BME280;6362;50.208;9.182;2024-01-30T12:49:30;101157.84;;;14.26;98.77